createdAt,value
2022-08-07T00:00:24.930Z,47.94
2022-08-07T00:02:53.531Z,52.09
2022-08-07T00:05:20.700Z,52.44
2022-08-07T00:07:59.687Z,50.37
2022-08-07T00:10:29.824Z,49.33
2022-08-07T00:13:01.125Z,48.55
2022-08-07T00:15:37.829Z,48.03
2022-08-07T00:18:19.550Z,47.87
2022-08-07T00:20:47.648Z,47.40
2022-08-07T00:23:14.852Z,48.26
2022-08-07T00:25:43.798Z,48.85
2022-08-07T00:28:18.789Z,46.43
2022-08-07T00:30:49.325Z,52.52
2022-08-07T00:33:16.356Z,52.74
2022-08-07T00:35:49.092Z,50.65
2022-08-07T00:38:16.758Z,49.28
2022-08-07T00:40:58.734Z,48.67
2022-08-07T00:43:59.506Z,48.31
2022-08-07T00:46:12.878Z,47.63
2022-08-07T00:48:42.390Z,47.60
2022-08-07T00:51:09.395Z,48.33
2022-08-07T00:53:38.903Z,48.71
2022-08-07T00:56:17.197Z,47.86
2022-08-07T00:58:46.980Z,52.29
2022-08-07T01:01:14.553Z,52.17
2022-08-07T01:03:56.509Z,50.42
2022-08-07T01:06:26.923Z,49.15
2022-08-07T01:08:56.267Z,48.40
2022-08-07T01:12:09.640Z,48.20
2022-08-07T01:14:12.767Z,47.81
2022-08-07T01:16:47.189Z,47.34
2022-08-07T01:19:19.251Z,47.33
2022-08-07T01:21:46.613Z,48.97
2022-08-07T01:24:13.577Z,47.23
2022-08-07T01:26:40.445Z,51.07
2022-08-07T01:29:07.446Z,52.70
2022-08-07T01:31:42.355Z,51.00
2022-08-07T01:34:10.331Z,49.82
2022-08-07T01:36:40.582Z,48.59
2022-08-07T01:39:10.006Z,48.25
2022-08-07T01:41:38.069Z,47.89
2022-08-07T01:44:05.587Z,47.55
2022-08-07T01:46:32.815Z,47.26
2022-08-07T01:49:00.175Z,48.46
2022-08-07T01:52:04.241Z,48.64
2022-08-07T01:54:32.636Z,47.98
2022-08-07T01:57:01.295Z,52.02
2022-08-07T01:59:31.046Z,51.67
2022-08-07T02:02:02.715Z,49.93
2022-08-07T02:04:31.532Z,48.98
2022-08-07T02:06:58.555Z,48.48
2022-08-07T02:09:51.994Z,48.03
2022-08-07T02:12:18.458Z,47.58
2022-08-07T02:14:45.301Z,47.32
2022-08-07T02:17:26.301Z,48.15
2022-08-07T02:20:05.156Z,48.60
2022-08-07T02:22:34.673Z,47.45
2022-08-07T02:25:01.744Z,52.32
2022-08-07T02:27:35.004Z,51.94
2022-08-07T02:30:03.966Z,50.36
2022-08-07T02:32:36.131Z,48.99
2022-08-07T02:35:09.181Z,48.44
2022-08-07T02:37:36.445Z,47.94
2022-08-07T02:40:29.863Z,47.54
2022-08-07T02:42:57.958Z,47.20
2022-08-07T02:46:00.789Z,48.76
2022-08-07T02:48:15.514Z,48.38
2022-08-07T02:50:42.804Z,48.28
2022-08-07T02:53:11.796Z,52.23
2022-08-07T02:56:03.681Z,52.02
2022-08-07T02:58:27.350Z,50.04
2022-08-07T03:00:54.314Z,48.92
2022-08-07T03:03:22.822Z,48.41
2022-08-07T03:05:50.422Z,47.70
2022-08-07T03:08:26.927Z,47.69
2022-08-07T03:10:56.292Z,47.37
2022-08-07T03:13:23.137Z,47.26
2022-08-07T03:15:56.261Z,49.07
2022-08-07T03:18:34.844Z,47.07
2022-08-07T03:21:03.097Z,51.50
2022-08-07T03:23:34.043Z,52.04
2022-08-07T03:26:21.215Z,50.32
2022-08-07T03:28:51.461Z,48.92
2022-08-07T03:31:18.686Z,48.38
2022-08-07T03:33:45.701Z,48.04
2022-08-07T03:36:15.447Z,47.65
2022-08-07T03:38:43.517Z,47.40
2022-08-07T03:41:12.140Z,47.75
2022-08-07T03:43:39.076Z,48.96
2022-08-07T03:46:18.174Z,46.85
2022-08-07T03:49:03.131Z,51.43
2022-08-07T03:51:30.851Z,51.96
2022-08-07T03:54:33.199Z,50.35
2022-08-07T03:57:03.543Z,48.75
2022-08-07T03:59:32.213Z,48.26
2022-08-07T04:01:59.302Z,47.83
2022-08-07T04:04:26.282Z,47.53
2022-08-07T04:06:53.207Z,47.30
2022-08-07T04:09:23.297Z,48.76
2022-08-07T04:12:26.571Z,48.70
2022-08-07T04:14:43.846Z,48.62
2022-08-07T04:17:19.928Z,52.23
2022-08-07T04:19:52.744Z,51.91
2022-08-07T04:22:22.998Z,49.62
2022-08-07T04:24:50.462Z,48.76
2022-08-07T04:27:35.902Z,48.49
2022-08-07T04:30:11.631Z,47.84
2022-08-07T04:32:44.951Z,47.42
2022-08-07T04:35:14.653Z,47.17
2022-08-07T04:38:03.181Z,49.24
2022-08-07T04:40:29.590Z,47.56
2022-08-07T04:43:01.306Z,50.76
2022-08-07T04:45:57.384Z,52.71
2022-08-07T04:48:16.557Z,50.79
2022-08-07T04:50:43.786Z,49.28
2022-08-07T04:53:39.945Z,48.30
2022-08-07T04:58:10.523Z,47.90
2022-08-07T05:00:07.908Z,47.86
2022-08-07T05:01:40.678Z,47.41
2022-08-07T05:04:17.174Z,47.59
2022-08-07T05:06:51.553Z,52.06
2022-08-07T05:09:43.238Z,52.94
2022-08-07T05:12:07.149Z,50.25
2022-08-07T05:14:52.111Z,48.73
2022-08-07T05:17:52.232Z,47.74
2022-08-07T05:20:09.967Z,47.34
2022-08-07T05:22:36.948Z,46.92
2022-08-07T05:25:08.789Z,46.79
2022-08-07T05:28:03.576Z,48.97
2022-08-07T05:30:32.695Z,52.25
2022-08-07T05:33:03.332Z,53.34
2022-08-07T05:35:33.491Z,49.76
2022-08-07T05:38:09.824Z,48.04
2022-08-07T05:40:37.083Z,47.64
2022-08-07T05:43:17.806Z,47.19
2022-08-07T05:45:47.017Z,46.71
2022-08-07T05:48:14.780Z,46.64
2022-08-07T05:50:43.149Z,49.74
2022-08-07T05:54:09.648Z,52.02
2022-08-07T05:56:03.774Z,51.95
2022-08-07T05:58:36.415Z,49.00
2022-08-07T06:01:05.143Z,47.89
2022-08-07T06:03:56.585Z,47.49
2022-08-07T06:06:22.211Z,47.21
2022-08-07T06:08:56.577Z,46.94
2022-08-07T06:11:25.336Z,48.34
2022-08-07T06:14:12.751Z,50.73
2022-08-07T06:16:39.620Z,53.09
2022-08-07T06:19:06.702Z,50.50
2022-08-07T06:22:16.732Z,48.37
2022-08-07T06:24:45.839Z,47.67
2022-08-07T06:27:07.857Z,47.40
2022-08-07T06:29:34.849Z,47.14
2022-08-07T06:32:05.716Z,48.63
2022-08-07T06:34:32.639Z,51.92
2022-08-07T06:37:02.670Z,53.39
2022-08-07T06:40:16.174Z,50.00
2022-08-07T06:42:17.430Z,48.00
2022-08-07T06:44:44.536Z,47.38
2022-08-07T06:47:17.645Z,47.10
2022-08-07T06:49:51.533Z,46.68
2022-08-07T06:52:31.442Z,49.92
2022-08-07T06:55:31.624Z,52.94
2022-08-07T06:57:50.974Z,51.74
2022-08-07T07:00:21.702Z,48.32
2022-08-07T07:02:53.985Z,47.74
2022-08-07T07:06:03.615Z,46.87
2022-08-07T07:08:18.796Z,46.52
2022-08-07T07:10:57.047Z,48.32
2022-08-07T07:13:55.935Z,50.87
2022-08-07T07:16:11.590Z,53.38
2022-08-07T07:18:47.990Z,49.45
2022-08-07T07:21:19.562Z,47.76
2022-08-07T07:24:08.348Z,47.30
2022-08-07T07:26:36.941Z,46.71
2022-08-07T07:29:55.842Z,46.73
2022-08-07T07:31:51.685Z,49.88
2022-08-07T07:34:18.495Z,52.20
2022-08-07T07:36:47.955Z,52.94
2022-08-07T07:39:19.631Z,48.60
2022-08-07T07:42:02.278Z,47.67
2022-08-07T07:44:35.748Z,46.97
2022-08-07T07:47:14.050Z,46.91
2022-08-07T07:50:32.807Z,46.42
2022-08-07T07:52:31.415Z,50.67
2022-08-07T07:54:58.485Z,52.88
2022-08-07T07:57:44.053Z,49.92
2022-08-07T08:00:12.459Z,47.48
2022-08-07T08:03:05.780Z,47.04
2022-08-07T08:05:50.898Z,46.73
2022-08-07T08:08:35.160Z,48.73
2022-08-07T08:11:03.734Z,51.56
2022-08-07T08:13:36.678Z,52.57
2022-08-07T08:16:18.100Z,48.51
2022-08-07T08:18:45.094Z,47.11
2022-08-07T08:21:55.859Z,47.11
2022-08-07T08:24:44.809Z,46.33
2022-08-07T08:27:14.283Z,50.14
2022-08-07T08:29:54.278Z,52.18
2022-08-07T08:32:25.308Z,50.48
2022-08-07T08:34:52.314Z,47.79
2022-08-07T08:37:59.567Z,47.05
2022-08-07T08:40:06.015Z,46.59
2022-08-07T08:42:40.434Z,46.68
2022-08-07T08:45:13.495Z,49.64
2022-08-07T08:47:51.900Z,52.17
2022-08-07T08:50:28.385Z,50.37
2022-08-07T08:53:06.337Z,47.89
2022-08-07T08:55:54.236Z,46.81
2022-08-07T08:58:26.517Z,46.91
2022-08-07T09:00:57.152Z,46.52
2022-08-07T09:03:24.034Z,48.84
2022-08-07T09:06:11.445Z,52.12
2022-08-07T09:08:39.311Z,51.27
2022-08-07T09:11:06.740Z,47.66
2022-08-07T09:13:37.492Z,47.12
2022-08-07T09:16:21.957Z,46.76
2022-08-07T09:18:53.234Z,46.40
2022-08-07T09:21:58.539Z,48.60
2022-08-07T09:24:31.144Z,51.89
2022-08-07T09:26:58.900Z,50.92
2022-08-07T09:30:05.476Z,47.82
2022-08-07T09:32:21.536Z,47.21
2022-08-07T09:34:54.051Z,46.43
2022-08-07T09:37:21.152Z,47.73
2022-08-07T09:40:07.947Z,51.15
2022-08-07T09:42:35.677Z,52.73
2022-08-07T09:47:24.874Z,48.49
2022-08-07T09:48:01.770Z,47.13
2022-08-07T09:50:31.190Z,46.62
2022-08-07T09:52:58.979Z,46.35
2022-08-07T09:55:29.654Z,46.32
2022-08-07T09:58:14.704Z,50.06
2022-08-07T10:00:41.502Z,52.18
2022-08-07T10:04:03.294Z,49.62
2022-08-07T10:06:00.015Z,47.14
2022-08-07T10:08:28.141Z,46.84
2022-08-07T10:11:59.437Z,46.24
2022-08-07T10:14:01.315Z,46.16
2022-08-07T10:16:28.915Z,50.75
2022-08-07T10:18:55.723Z,52.37
2022-08-07T10:22:12.216Z,48.58
2022-08-07T10:24:10.069Z,46.89
2022-08-07T10:26:37.045Z,46.31
2022-08-07T10:29:04.498Z,46.10
2022-08-07T10:31:38.469Z,45.97
2022-08-07T10:34:18.122Z,49.15
2022-08-07T10:36:45.519Z,51.86
2022-08-07T10:39:14.353Z,49.58
2022-08-07T10:41:46.819Z,47.28
2022-08-07T10:44:19.387Z,46.41
2022-08-07T10:46:55.485Z,46.25
2022-08-07T10:49:45.333Z,46.66
2022-08-07T10:52:13.868Z,50.67
2022-08-07T10:54:40.898Z,52.48
2022-08-07T10:57:07.788Z,48.47
2022-08-07T10:59:37.365Z,46.54
2022-08-07T11:02:11.888Z,46.40
2022-08-07T11:04:39.447Z,46.17
2022-08-07T11:07:14.714Z,46.15
2022-08-07T11:10:07.746Z,49.84
2022-08-07T11:12:32.257Z,51.81
2022-08-07T11:15:00.570Z,48.17
2022-08-07T11:17:43.246Z,46.53
2022-08-07T11:20:12.717Z,46.05
2022-08-07T11:22:45.953Z,46.00
2022-08-07T11:25:13.285Z,45.68
2022-08-07T11:28:01.369Z,49.57
2022-08-07T11:30:42.055Z,52.18
2022-08-07T11:33:14.970Z,48.02
2022-08-07T11:35:59.638Z,46.37
2022-08-07T11:38:28.484Z,46.11
2022-08-07T11:40:56.229Z,45.82
2022-08-07T11:43:41.410Z,47.37
2022-08-07T11:46:10.801Z,51.39
2022-08-07T11:48:37.704Z,51.56
2022-08-07T11:51:04.545Z,47.29
2022-08-07T11:53:36.062Z,46.03
2022-08-07T11:56:15.590Z,45.65
2022-08-07T11:58:50.084Z,45.76
2022-08-07T12:01:20.329Z,48.32
2022-08-07T12:03:48.990Z,51.13
2022-08-07T12:06:39.959Z,50.62
2022-08-07T12:09:02.667Z,46.70
2022-08-07T12:11:32.576Z,46.15
2022-08-07T12:13:59.544Z,45.92
2022-08-07T12:16:30.077Z,45.44
2022-08-07T12:18:58.985Z,48.38
2022-08-07T12:22:36.586Z,51.35
2022-08-07T12:24:37.934Z,49.70
2022-08-07T12:27:03.159Z,46.59
2022-08-07T12:29:37.549Z,46.17
2022-08-07T12:32:12.124Z,45.65
2022-08-07T12:34:39.579Z,45.45
2022-08-07T12:37:16.511Z,48.18
2022-08-07T12:39:51.254Z,51.30
2022-08-07T12:42:18.543Z,49.68
2022-08-07T12:44:54.249Z,46.51
2022-08-07T12:47:27.104Z,45.74
2022-08-07T12:50:04.901Z,45.32
2022-08-07T12:52:46.303Z,45.61
2022-08-07T12:55:16.478Z,49.35
2022-08-07T12:58:00.878Z,51.35
2022-08-07T13:00:32.707Z,48.06
2022-08-07T13:03:06.970Z,46.34
2022-08-07T13:06:04.603Z,45.92
2022-08-07T13:08:21.322Z,45.49
2022-08-07T13:10:51.531Z,46.85
2022-08-07T13:13:48.458Z,50.92
2022-08-07T13:16:05.960Z,51.02
2022-08-07T13:18:34.527Z,46.84
2022-08-07T13:21:02.774Z,45.94
2022-08-07T13:24:00.711Z,45.52
2022-08-07T13:26:18.385Z,45.54
2022-08-07T13:28:46.988Z,49.99
2022-08-07T13:31:14.074Z,51.18
2022-08-07T13:34:31.224Z,48.21
2022-08-07T13:36:27.737Z,45.77
2022-08-07T13:38:55.634Z,45.59
2022-08-07T13:41:24.372Z,45.12
2022-08-07T13:43:56.512Z,45.89
2022-08-07T13:46:28.295Z,50.34
2022-08-07T13:48:59.775Z,52.00
2022-08-07T13:51:28.286Z,47.09
2022-08-07T13:54:16.492Z,45.66
2022-08-07T13:56:51.660Z,45.50
2022-08-07T13:59:19.079Z,45.13
2022-08-07T14:02:03.829Z,45.88
2022-08-07T14:04:35.754Z,50.14
2022-08-07T14:07:03.640Z,51.55
2022-08-07T14:10:00.876Z,46.95
2022-08-07T14:12:20.789Z,45.72
2022-08-07T14:14:54.304Z,45.27
2022-08-07T14:18:13.127Z,45.00
2022-08-07T14:20:40.898Z,48.04
2022-08-07T14:22:54.693Z,51.13
2022-08-07T14:25:22.844Z,49.06
2022-08-07T14:28:11.911Z,45.86
2022-08-07T14:30:36.641Z,45.21
2022-08-07T14:33:07.614Z,45.14
2022-08-07T14:35:45.738Z,45.00
2022-08-07T14:38:26.536Z,49.68
2022-08-07T14:40:58.085Z,51.05
2022-08-07T14:43:58.983Z,46.54
2022-08-07T14:46:11.919Z,45.35
2022-08-07T14:48:44.333Z,45.31
2022-08-07T14:51:15.804Z,44.96
2022-08-07T14:54:30.394Z,47.89
2022-08-07T14:56:49.110Z,50.99
2022-08-07T15:00:04.474Z,48.19
2022-08-07T15:02:02.769Z,45.59
2022-08-07T15:04:30.225Z,45.28
2022-08-07T15:07:00.945Z,44.96
2022-08-07T15:13:11.331Z,49.92
2022-08-07T15:17:54.681Z,45.84
2022-08-07T15:20:33.185Z,45.14
2022-08-07T15:23:20.543Z,45.01
2022-08-07T15:25:47.624Z,44.81
2022-08-07T15:28:31.428Z,47.70
2022-08-07T15:31:05.603Z,50.77
2022-08-07T15:37:02.420Z,45.20
2022-08-07T15:39:10.534Z,44.79
2022-08-07T15:42:46.368Z,44.58
2022-08-07T15:44:24.455Z,46.12
2022-08-07T15:46:52.954Z,49.96
2022-08-07T15:49:25.362Z,51.04
2022-08-07T15:54:24.480Z,45.00
2022-08-07T15:56:53.212Z,44.74
2022-08-07T15:59:20.238Z,44.49
2022-08-07T16:02:07.054Z,49.11
2022-08-07T16:04:35.382Z,50.75
2022-08-07T16:07:04.675Z,47.43
2022-08-07T16:09:41.155Z,45.39
2022-08-07T16:12:12.252Z,44.69
2022-08-07T16:14:39.243Z,44.76
2022-08-07T16:17:14.852Z,44.66
2022-08-07T16:19:59.329Z,49.32
2022-08-07T16:22:34.080Z,50.56
2022-08-07T16:25:03.012Z,46.65
2022-08-07T16:27:40.670Z,45.03
2022-08-07T16:30:30.533Z,44.51
2022-08-07T16:32:55.326Z,44.25
2022-08-07T16:35:52.351Z,46.91
2022-08-07T16:38:11.439Z,50.59
2022-08-07T16:40:57.047Z,48.64
2022-08-07T16:44:02.709Z,45.17
2022-08-07T16:47:06.008Z,44.74
2022-08-07T16:50:28.273Z,44.35
2022-08-07T16:51:57.642Z,44.48
2022-08-07T16:54:34.633Z,48.57
2022-08-07T16:57:03.215Z,50.54
2022-08-07T16:59:46.881Z,47.18
2022-08-07T17:02:14.183Z,44.88
2022-08-07T17:05:00.968Z,44.42
2022-08-07T17:07:55.383Z,44.22
2022-08-07T17:10:32.529Z,46.26
2022-08-07T17:13:00.844Z,49.75
2022-08-07T17:15:44.275Z,49.54
2022-08-07T17:18:15.737Z,45.18
2022-08-07T17:20:46.646Z,44.48
2022-08-07T17:23:13.623Z,44.12
2022-08-07T17:25:47.776Z,44.44
2022-08-07T17:28:19.852Z,47.47
2022-08-07T17:30:57.724Z,50.32
2022-08-07T17:34:08.890Z,47.88
2022-08-07T17:36:20.106Z,45.14
2022-08-07T17:38:50.254Z,44.64
2022-08-07T17:42:03.778Z,43.98
2022-08-07T17:44:08.291Z,45.46
2022-08-07T17:46:40.918Z,49.73
2022-08-07T17:49:08.849Z,50.27
2022-08-07T17:51:49.698Z,45.70
2022-08-07T17:54:39.669Z,44.67
2022-08-07T17:57:19.036Z,44.21
2022-08-07T17:59:46.329Z,44.14
2022-08-07T18:02:17.517Z,47.84
2022-08-07T18:04:50.313Z,50.48
2022-08-07T18:07:20.607Z,47.50
2022-08-07T18:10:06.453Z,44.81
2022-08-07T18:12:37.176Z,44.13
2022-08-07T18:15:08.339Z,43.95
2022-08-07T18:18:46.956Z,43.91
2022-08-07T18:21:08.230Z,48.32
2022-08-07T18:23:42.618Z,50.48
2022-08-07T18:26:00.997Z,45.58
2022-08-07T18:28:35.510Z,44.69
2022-08-07T18:31:03.038Z,44.04
2022-08-07T18:33:29.897Z,43.92
2022-08-07T18:35:57.280Z,46.04
2022-08-07T18:38:56.828Z,49.73
2022-08-07T18:41:17.156Z,48.26
2022-08-07T18:43:49.291Z,45.19
2022-08-07T18:46:21.920Z,44.34
2022-08-07T18:50:31.149Z,43.92
2022-08-07T18:52:25.490Z,44.00
2022-08-07T18:54:27.892Z,48.34
2022-08-07T18:57:29.369Z,50.25
2022-08-07T18:59:47.960Z,45.88
2022-08-07T19:02:36.250Z,44.62
2022-08-07T19:05:10.766Z,44.14
2022-08-07T19:07:51.777Z,43.69
2022-08-07T19:10:31.620Z,44.58
2022-08-07T19:12:59.418Z,48.69
2022-08-07T19:16:05.657Z,50.06
2022-08-07T19:18:34.421Z,45.72
2022-08-07T19:21:10.077Z,44.47
2022-08-07T19:23:59.232Z,44.05
2022-08-07T19:26:28.511Z,43.72
2022-08-07T19:31:04.083Z,45.76
2022-08-07T19:32:11.493Z,49.50
2022-08-07T19:34:34.293Z,48.77
2022-08-07T19:37:10.348Z,45.22
2022-08-07T19:39:56.310Z,44.34
2022-08-07T19:42:24.852Z,43.81
2022-08-07T19:44:52.013Z,43.66
2022-08-07T19:47:27.067Z,44.20
2022-08-07T19:49:56.448Z,48.42
2022-08-07T19:52:25.812Z,49.82
2022-08-07T19:54:58.193Z,46.02
2022-08-07T19:58:03.482Z,44.34
2022-08-07T20:00:28.385Z,44.01
2022-08-07T20:02:56.454Z,43.90
2022-08-07T20:05:25.214Z,45.44
2022-08-07T20:07:55.084Z,49.03
2022-08-07T20:10:36.282Z,49.72
2022-08-07T20:13:15.822Z,45.18
2022-08-07T20:15:50.905Z,44.46
2022-08-07T20:18:18.415Z,43.83
2022-08-07T20:20:46.954Z,43.66
2022-08-07T20:23:40.281Z,43.25
2022-08-07T20:26:02.014Z,48.58
2022-08-07T20:28:30.688Z,49.78
2022-08-07T20:30:58.140Z,46.94
2022-08-07T20:33:37.566Z,44.78
2022-08-07T20:36:05.290Z,43.96
2022-08-07T20:38:32.731Z,43.78
2022-08-07T20:41:03.922Z,43.62
2022-08-07T20:43:32.493Z,46.01
2022-08-07T20:46:25.921Z,49.25
2022-08-07T20:49:53.868Z,48.53
2022-08-07T20:51:36.118Z,44.97
2022-08-07T20:54:11.751Z,44.09
2022-08-07T20:56:46.174Z,43.73
2022-08-07T21:00:04.990Z,43.61
2022-08-07T21:02:04.337Z,43.19
2022-08-07T21:04:41.561Z,47.76
2022-08-07T21:07:14.729Z,49.96
2022-08-07T21:09:59.183Z,46.71
2022-08-07T21:12:30.728Z,44.60
2022-08-07T21:14:58.159Z,44.08
2022-08-07T21:18:06.615Z,43.80
2022-08-07T21:20:18.670Z,43.47
2022-08-07T21:22:53.789Z,44.54
2022-08-07T21:25:21.622Z,48.59
2022-08-07T21:27:49.301Z,50.36
2022-08-07T21:30:21.344Z,46.64
2022-08-07T21:32:52.241Z,44.58
2022-08-07T21:35:34.586Z,44.38
2022-08-07T21:38:06.180Z,43.37
2022-08-07T21:40:36.001Z,43.54
2022-08-07T21:43:05.194Z,43.49
2022-08-07T21:46:09.502Z,45.89
2022-08-07T21:48:32.487Z,48.96
2022-08-07T21:51:01.355Z,48.72
2022-08-07T21:53:28.612Z,45.03
2022-08-07T21:55:55.894Z,44.22
2022-08-07T21:58:32.127Z,43.82
2022-08-07T22:00:59.485Z,43.75
2022-08-07T22:03:31.377Z,43.21
2022-08-07T22:05:58.861Z,46.50
2022-08-07T22:08:25.675Z,49.49
2022-08-07T22:10:53.489Z,49.26
2022-08-07T22:13:23.863Z,45.29
2022-08-07T22:16:40.275Z,44.62
2022-08-07T22:18:39.332Z,43.76
2022-08-07T22:21:08.897Z,43.41
2022-08-07T22:23:40.181Z,43.43
2022-08-07T22:26:07.961Z,43.60
2022-08-07T22:28:35.754Z,47.88
2022-08-07T22:31:05.256Z,49.92
2022-08-07T22:33:53.375Z,46.86
2022-08-07T22:36:19.221Z,44.75
2022-08-07T22:38:47.926Z,43.99
2022-08-07T22:41:16.269Z,43.65
2022-08-07T22:43:47.470Z,43.43
2022-08-07T22:46:46.952Z,43.17
2022-08-07T22:49:09.122Z,45.46
2022-08-07T22:51:39.594Z,49.00
2022-08-07T22:54:09.465Z,49.58
2022-08-07T22:56:36.346Z,45.38
2022-08-07T22:59:05.189Z,44.53
2022-08-07T23:01:49.348Z,44.07
2022-08-07T23:04:17.096Z,43.69
2022-08-07T23:06:44.022Z,43.11
2022-08-07T23:10:03.999Z,43.09
2022-08-07T23:12:06.339Z,47.71
2022-08-07T23:14:33.976Z,49.92
2022-08-07T23:17:00.772Z,46.92
2022-08-07T23:19:57.879Z,45.06
2022-08-07T23:22:27.124Z,44.00
2022-08-07T23:24:54.170Z,43.73
2022-08-07T23:27:33.588Z,43.19
2022-08-07T23:30:39.591Z,43.19
2022-08-07T23:34:23.082Z,46.48
2022-08-07T23:35:37.582Z,49.50
2022-08-07T23:38:04.473Z,47.97
2022-08-07T23:40:31.255Z,45.48
2022-08-07T23:42:58.100Z,44.33
2022-08-07T23:45:33.173Z,43.72
2022-08-07T23:48:11.712Z,43.81
2022-08-07T23:50:42.622Z,43.49
2022-08-07T23:53:15.448Z,43.20
2022-08-07T23:55:47.213Z,47.23
2022-08-07T23:58:21.528Z,49.72
